Etusivu
METAR-TAF:

METAR-TAF

Lentoasemat :

Hemphill County Airport

Canadian, Texas, Yhdysvallat

Leveyspiiri: 35-54N, Pituuspiiri: 100-24W, korkeus merenpinnasta: 730 m

Tämänhetkinen sää

Tämä raportti tehtiin 11 minuuttia sitten, kello 22.55 UTC
Tuuli 11 kn etelästä puuskistuen 22 kn:hen
Lämpötila 29°C
Kosteus 48%
Ilmanpaine 1013 hPa
Näkyvyys: 16.1 km
selkeää
ukkosta näköpiirissä

METAR: KHHF 162255Z AUTO 18011G22KT 10SM VCTS CLR 29/17 A2991 RMK AO2 LTG DSNT S AND SW T02890170

Aika: 18:06 (23:06 UTC)


TAF: puuttuu

Säähavainnot ja -ennusteet yli 4000 lentoasemalta (METAR- ja TAF-raportit).

Käytössä olevat sääasemat on merkitty karttaan keltaisilla ja punaisilla pisteillä.

Aseta hiiri pisteen päälle nähdäksesi sääaseman nimen.

Klikkaa sitten nähdäksesi säähavainnot ja -ennusteet.

Kartan vaihtaminen: klikkaa mustalla rastilla varustettuja vihreitä pisteitä, niin voit zoomata sisään; viivalla varustettua vihreää pistettä, niin voit zoomata ulos tai vihreitä nuolia, niin pääset viereisille kartoille.


METAR-TAF: